createdAt,value
2022-12-08T00:00:38.426Z,15.88
2022-12-08T00:01:26.331Z,15.48
2022-12-08T00:02:08.181Z,16.10
2022-12-08T00:02:50.514Z,16.08
2022-12-08T00:03:33.065Z,16.05
2022-12-08T00:04:15.078Z,17.02
2022-12-08T00:05:15.254Z,15.75
2022-12-08T00:06:15.381Z,15.13
2022-12-08T00:07:15.401Z,15.55
2022-12-08T00:08:15.824Z,15.48
2022-12-08T00:09:16.121Z,15.85
2022-12-08T00:09:57.780Z,16.42
2022-12-08T00:10:49.643Z,15.20
2022-12-08T00:11:31.865Z,15.95
2022-12-08T00:12:20.399Z,15.70
2022-12-08T00:13:02.550Z,15.80
2022-12-08T00:13:44.282Z,15.65
2022-12-08T00:14:29.179Z,15.57
2022-12-08T00:15:10.875Z,15.93
2022-12-08T00:15:52.616Z,15.52
2022-12-08T00:16:34.308Z,15.43
2022-12-08T00:17:17.172Z,16.50
2022-12-08T00:17:58.791Z,15.75
2022-12-08T00:18:40.459Z,16.15
2022-12-08T00:19:23.283Z,17.10
2022-12-08T00:20:05.649Z,15.90
2022-12-08T00:20:57.797Z,15.85
2022-12-08T00:21:39.510Z,16.35
2022-12-08T00:22:21.161Z,15.52
2022-12-08T00:23:04.193Z,15.88
2022-12-08T00:23:45.863Z,16.83
2022-12-08T00:24:32.262Z,16.15
2022-12-08T00:25:14.740Z,16.52
2022-12-08T00:25:56.417Z,17.02
2022-12-08T00:26:38.363Z,16.00
2022-12-08T00:27:19.998Z,15.80
2022-12-08T00:28:01.630Z,16.33
2022-12-08T00:28:43.406Z,15.82
2022-12-08T00:29:25.056Z,15.30
2022-12-08T00:30:09.281Z,15.68
2022-12-08T00:30:53.689Z,15.77
2022-12-08T00:31:38.796Z,15.30
2022-12-08T00:32:23.213Z,15.60
2022-12-08T00:33:08.026Z,15.07
2022-12-08T00:33:52.599Z,15.80
2022-12-08T00:34:34.664Z,16.27
2022-12-08T00:35:18.962Z,16.50
2022-12-08T00:36:06.771Z,16.80
2022-12-08T00:36:48.447Z,16.00
2022-12-08T00:37:30.118Z,16.20
2022-12-08T00:38:11.791Z,17.10
2022-12-08T00:38:53.497Z,17.15
2022-12-08T00:39:35.218Z,16.45
2022-12-08T00:40:16.908Z,15.90
2022-12-08T00:40:58.553Z,16.02
2022-12-08T00:42:02.939Z,16.50
2022-12-08T00:42:46.024Z,17.65
2022-12-08T00:43:27.694Z,15.70
2022-12-08T00:44:10.897Z,16.45
2022-12-08T00:44:55.619Z,16.40
2022-12-08T00:45:37.327Z,16.00
2022-12-08T00:46:19.026Z,15.85
2022-12-08T00:47:00.810Z,16.42
2022-12-08T00:47:42.445Z,15.57
2022-12-08T00:48:24.088Z,16.02
2022-12-08T00:49:06.463Z,16.85
2022-12-08T00:49:48.093Z,17.55
2022-12-08T00:50:29.720Z,17.70
2022-12-08T00:51:11.366Z,16.60
2022-12-08T00:51:53.167Z,16.27
2022-12-08T00:52:35.177Z,16.88
2022-12-08T00:53:16.815Z,16.95
2022-12-08T00:53:58.631Z,16.20
2022-12-08T00:54:40.325Z,16.63
2022-12-08T00:55:22.007Z,17.20
2022-12-08T00:56:03.685Z,17.42
2022-12-08T00:56:46.134Z,15.25
2022-12-08T00:57:27.791Z,15.57
2022-12-08T00:58:09.465Z,15.93
2022-12-08T00:58:51.233Z,16.75
2022-12-08T00:59:32.899Z,16.65
2022-12-08T01:00:14.860Z,17.30
2022-12-08T01:00:56.655Z,16.75
2022-12-08T01:01:38.587Z,17.33
2022-12-08T01:02:20.211Z,16.63
2022-12-08T01:03:01.975Z,16.15
2022-12-08T01:03:44.078Z,17.17
2022-12-08T01:04:25.780Z,16.48
2022-12-08T01:05:07.740Z,17.38
2022-12-08T01:05:49.396Z,17.20
2022-12-08T01:06:31.497Z,16.52
2022-12-08T01:07:13.185Z,17.85
2022-12-08T01:07:56.477Z,17.40
2022-12-08T01:08:41.708Z,17.33
2022-12-08T01:09:23.943Z,17.20
2022-12-08T01:10:06.812Z,17.10
2022-12-08T01:10:48.626Z,17.00
2022-12-08T01:11:30.308Z,16.30
2022-12-08T01:12:11.930Z,16.38
2022-12-08T01:12:53.564Z,16.70
2022-12-08T01:13:35.346Z,17.20
2022-12-08T01:14:17.183Z,17.20
2022-12-08T01:15:02.243Z,16.90
2022-12-08T01:15:44.510Z,17.45
2022-12-08T01:16:29.394Z,15.88
2022-12-08T01:17:11.275Z,16.60
2022-12-08T01:17:52.980Z,17.10
2022-12-08T01:18:35.536Z,17.48
2022-12-08T01:19:17.967Z,16.88
2022-12-08T01:20:01.179Z,16.75
2022-12-08T01:20:43.095Z,16.63
2022-12-08T01:21:25.358Z,16.65
2022-12-08T01:22:07.135Z,16.77
2022-12-08T01:22:48.784Z,17.10
2022-12-08T01:23:30.500Z,16.25
2022-12-08T01:24:14.639Z,16.13
2022-12-08T01:24:56.330Z,17.25
2022-12-08T01:25:38.126Z,17.23
2022-12-08T01:26:20.279Z,17.85
2022-12-08T01:27:01.929Z,16.50
2022-12-08T01:27:43.573Z,16.85
2022-12-08T01:28:25.208Z,17.23
2022-12-08T01:29:06.875Z,17.55
2022-12-08T01:29:48.566Z,17.17
2022-12-08T01:30:30.312Z,16.73
2022-12-08T01:31:22.122Z,18.40
2022-12-08T01:32:04.004Z,16.17
2022-12-08T01:32:45.713Z,15.85
2022-12-08T01:33:28.105Z,15.90
2022-12-08T01:34:11.228Z,16.60
2022-12-08T01:34:52.855Z,16.35
2022-12-08T01:35:37.625Z,16.92
2022-12-08T01:36:27.536Z,16.20
2022-12-08T01:37:09.570Z,16.15
2022-12-08T01:37:51.435Z,16.80
2022-12-08T01:38:33.322Z,16.33
2022-12-08T01:39:17.754Z,16.08
2022-12-08T01:39:59.428Z,16.70
2022-12-08T01:40:41.120Z,15.80
2022-12-08T01:41:25.426Z,14.20
2022-12-08T01:42:21.972Z,15.95
2022-12-08T01:43:03.863Z,15.05
2022-12-08T01:44:03.943Z,14.45
2022-12-08T01:44:45.521Z,15.00
2022-12-08T01:45:29.414Z,15.55
2022-12-08T01:46:11.532Z,15.10
2022-12-08T01:46:54.244Z,15.02
2022-12-08T01:47:42.797Z,14.57
2022-12-08T01:48:27.442Z,14.90
2022-12-08T01:49:28.327Z,14.15
2022-12-08T01:50:13.174Z,14.35
2022-12-08T01:50:56.058Z,15.23
2022-12-08T01:51:55.233Z,14.55
2022-12-08T01:52:42.637Z,14.60
2022-12-08T01:53:29.149Z,15.60
2022-12-08T01:54:12.631Z,14.00
2022-12-08T01:54:58.772Z,15.00
2022-12-08T01:55:52.754Z,13.30
2022-12-08T01:57:00.312Z,14.05
2022-12-08T01:57:45.291Z,13.85
2022-12-08T01:58:32.240Z,13.80
2022-12-08T01:59:13.975Z,13.40
2022-12-08T02:00:00.776Z,14.07
2022-12-08T02:00:43.165Z,13.57
2022-12-08T02:01:24.897Z,13.80
2022-12-08T02:02:10.109Z,13.03
2022-12-08T02:02:59.431Z,12.07
2022-12-08T02:03:48.002Z,13.30
2022-12-08T02:04:29.634Z,13.57
2022-12-08T02:05:11.959Z,12.50
2022-12-08T02:05:53.736Z,11.65
2022-12-08T02:06:39.651Z,12.98
2022-12-08T02:07:23.105Z,13.82
2022-12-08T02:08:08.359Z,13.93
2022-12-08T02:08:50.768Z,13.65
2022-12-08T02:09:32.727Z,12.95
2022-12-08T02:10:18.420Z,12.63
2022-12-08T02:11:00.073Z,13.43
2022-12-08T02:11:41.755Z,12.32
2022-12-08T02:12:23.645Z,11.75
2022-12-08T02:13:09.359Z,11.55
2022-12-08T02:13:52.849Z,11.18
2022-12-08T02:14:34.917Z,10.95
2022-12-08T02:15:16.835Z,11.60
2022-12-08T02:16:33.054Z,11.82
2022-12-08T02:17:39.955Z,11.20
2022-12-08T02:18:57.667Z,11.20
2022-12-08T02:20:13.226Z,11.07
2022-12-08T02:21:17.035Z,11.75
2022-12-08T02:22:07.238Z,11.40
2022-12-08T02:22:58.901Z,11.35
2022-12-08T02:24:10.795Z,10.75
2022-12-08T02:25:11.616Z,11.48
2022-12-08T02:26:34.848Z,11.02
2022-12-08T02:27:47.396Z,10.95
2022-12-08T02:29:10.790Z,11.10
2022-12-08T02:30:22.595Z,11.82
2022-12-08T02:31:44.803Z,11.65
2022-12-08T02:33:08.307Z,10.93
2022-12-08T02:34:04.616Z,12.30
2022-12-08T02:35:15.284Z,11.90
2022-12-08T02:36:26.741Z,11.43
2022-12-08T02:37:18.529Z,12.60
2022-12-08T02:38:13.807Z,11.33
2022-12-08T02:39:16.251Z,11.82
2022-12-08T02:40:10.388Z,11.30
2022-12-08T02:41:17.605Z,11.52
2022-12-08T02:42:06.016Z,11.32
2022-12-08T02:42:57.473Z,11.43
2022-12-08T02:43:44.179Z,10.35
2022-12-08T02:44:48.919Z,10.50
2022-12-08T02:45:36.047Z,9.90
2022-12-08T02:46:41.965Z,10.65
2022-12-08T02:47:24.987Z,10.52
2022-12-08T02:48:08.436Z,10.50
2022-12-08T02:48:52.177Z,10.60
2022-12-08T02:49:35.117Z,10.98
2022-12-08T02:50:16.798Z,10.73
2022-12-08T02:50:58.446Z,10.77
2022-12-08T02:51:40.091Z,10.15
2022-12-08T02:52:21.707Z,10.27
2022-12-08T02:53:46.552Z,10.68
2022-12-08T02:54:28.217Z,9.77
2022-12-08T02:55:19.152Z,10.90
2022-12-08T02:56:21.852Z,10.23
2022-12-08T02:57:15.879Z,9.98
2022-12-08T02:58:12.490Z,10.25
2022-12-08T02:59:06.215Z,11.02
2022-12-08T02:59:56.179Z,10.70
2022-12-08T03:01:04.023Z,10.40
2022-12-08T03:02:13.649Z,10.35
2022-12-08T03:03:27.095Z,9.90
2022-12-08T03:04:24.627Z,10.27
2022-12-08T03:05:36.863Z,10.23
2022-12-08T03:06:30.676Z,9.52
2022-12-08T03:07:28.036Z,9.73
2022-12-08T03:08:47.320Z,10.93
2022-12-08T03:09:59.566Z,10.10
2022-12-08T03:10:46.358Z,10.50
2022-12-08T03:11:39.801Z,9.90
2022-12-08T03:13:01.235Z,9.98
2022-12-08T03:13:50.344Z,10.40
2022-12-08T03:14:33.707Z,9.60
2022-12-08T03:15:18.740Z,9.55
2022-12-08T03:16:03.433Z,9.88
2022-12-08T03:16:49.558Z,9.15
2022-12-08T03:17:32.125Z,9.70
2022-12-08T03:18:17.181Z,10.27
2022-12-08T03:19:19.845Z,9.48
2022-12-08T03:20:09.016Z,10.50
2022-12-08T03:20:51.797Z,10.18
2022-12-08T03:21:35.211Z,9.68
2022-12-08T03:22:22.049Z,9.63
2022-12-08T03:23:08.342Z,10.18
2022-12-08T03:23:53.983Z,10.40
2022-12-08T03:24:39.391Z,9.10
2022-12-08T03:25:23.672Z,9.68
2022-12-08T03:26:12.530Z,9.40
2022-12-08T03:27:08.093Z,9.40
2022-12-08T03:27:51.642Z,9.80
2022-12-08T03:28:33.477Z,9.45
2022-12-08T03:29:15.409Z,9.75
2022-12-08T03:29:58.817Z,10.15
2022-12-08T03:30:43.287Z,10.27
2022-12-08T03:31:29.368Z,10.70
2022-12-08T03:32:23.868Z,9.20
2022-12-08T03:33:14.719Z,9.45
2022-12-08T03:33:58.470Z,9.95
2022-12-08T03:34:44.178Z,10.38
2022-12-08T03:35:31.302Z,10.45
2022-12-08T03:36:14.130Z,10.00
2022-12-08T03:36:56.096Z,10.20
2022-12-08T03:37:40.278Z,10.70
2022-12-08T03:38:22.128Z,10.45
2022-12-08T03:39:03.903Z,10.00
2022-12-08T03:39:45.580Z,10.45
2022-12-08T03:40:27.198Z,9.77
2022-12-08T03:41:18.356Z,9.98
2022-12-08T03:41:59.992Z,10.55
2022-12-08T03:42:41.627Z,9.98
2022-12-08T03:43:23.287Z,10.63
2022-12-08T03:44:05.172Z,10.13
2022-12-08T03:44:46.835Z,10.40
2022-12-08T03:45:28.843Z,10.10
2022-12-08T03:46:10.537Z,10.20
2022-12-08T03:46:52.239Z,11.00
2022-12-08T03:47:33.904Z,10.40
2022-12-08T03:48:15.520Z,10.48
2022-12-08T03:48:57.776Z,9.73
2022-12-08T03:49:39.755Z,10.57
2022-12-08T03:50:21.523Z,10.45
2022-12-08T03:51:03.169Z,9.93
2022-12-08T03:51:44.895Z,9.80
2022-12-08T03:52:26.556Z,9.27
2022-12-08T03:53:08.232Z,10.68
2022-12-08T03:53:50.676Z,10.75
2022-12-08T03:54:32.371Z,9.85
2022-12-08T03:55:14.224Z,9.55
2022-12-08T03:55:55.890Z,9.75
2022-12-08T03:56:39.554Z,10.70
2022-12-08T03:57:21.666Z,10.60
2022-12-08T03:58:03.291Z,10.20
2022-12-08T03:58:45.068Z,10.23
2022-12-08T03:59:26.729Z,10.32
2022-12-08T04:00:13.688Z,10.15
2022-12-08T04:00:55.448Z,9.77
2022-12-08T04:01:37.110Z,9.68
2022-12-08T04:02:18.817Z,10.32
2022-12-08T04:03:00.533Z,10.20
2022-12-08T04:03:42.202Z,10.10
2022-12-08T04:04:24.063Z,10.30
2022-12-08T04:05:05.885Z,10.25
2022-12-08T04:05:47.536Z,11.00
2022-12-08T04:06:29.154Z,10.30
2022-12-08T04:07:10.793Z,9.95
2022-12-08T04:07:56.617Z,10.25
2022-12-08T04:08:38.581Z,9.80
2022-12-08T04:09:20.237Z,10.07
2022-12-08T04:10:02.296Z,10.45
2022-12-08T04:10:44.115Z,11.50
2022-12-08T04:11:25.801Z,9.88
2022-12-08T04:12:11.048Z,10.00
2022-12-08T04:12:53.134Z,10.43
2022-12-08T04:13:36.779Z,10.20
2022-12-08T04:14:18.417Z,10.00
2022-12-08T04:15:00.113Z,10.40
2022-12-08T04:15:46.359Z,9.93
2022-12-08T04:16:28.531Z,10.57
2022-12-08T04:17:10.279Z,9.95
2022-12-08T04:17:51.958Z,8.90
2022-12-08T04:18:34.598Z,9.30
2022-12-08T04:19:16.231Z,9.57
2022-12-08T04:19:57.842Z,9.57
2022-12-08T04:20:41.307Z,9.70
2022-12-08T04:21:23.202Z,9.55
2022-12-08T04:22:04.883Z,9.40
2022-12-08T04:22:46.528Z,9.85
2022-12-08T04:23:28.449Z,10.25
2022-12-08T04:24:10.203Z,9.60
2022-12-08T04:24:51.845Z,10.30
2022-12-08T04:25:33.802Z,10.38
2022-12-08T04:26:16.095Z,10.07
2022-12-08T04:26:57.791Z,9.30
2022-12-08T04:27:39.443Z,9.27
2022-12-08T04:28:21.746Z,10.13
2022-12-08T04:29:03.483Z,9.48
2022-12-08T04:29:45.098Z,9.57
2022-12-08T04:30:26.832Z,10.10
2022-12-08T04:31:08.680Z,10.57
2022-12-08T04:31:50.453Z,10.38
2022-12-08T04:32:32.179Z,10.15
2022-12-08T04:33:13.828Z,10.60
2022-12-08T04:33:55.552Z,10.30
2022-12-08T04:34:37.217Z,9.50
2022-12-08T04:35:18.896Z,9.60
2022-12-08T04:36:00.967Z,9.93
2022-12-08T04:36:42.612Z,10.27
2022-12-08T04:37:24.291Z,10.10
2022-12-08T04:38:05.979Z,9.95
2022-12-08T04:38:47.597Z,9.93
2022-12-08T04:39:29.211Z,10.27
2022-12-08T04:40:12.363Z,10.50
2022-12-08T04:40:54.232Z,11.18
2022-12-08T04:41:35.872Z,10.90
2022-12-08T04:42:17.536Z,11.18
2022-12-08T04:42:59.280Z,11.20
2022-12-08T04:43:41.636Z,10.25
2022-12-08T04:44:23.284Z,10.38
2022-12-08T04:45:05.848Z,10.88
2022-12-08T04:45:47.884Z,10.68
2022-12-08T04:46:29.570Z,11.15
2022-12-08T04:47:11.280Z,10.70
2022-12-08T04:47:53.019Z,10.90
2022-12-08T04:48:36.353Z,10.48
2022-12-08T04:49:17.993Z,11.35
2022-12-08T04:49:59.659Z,11.60
2022-12-08T04:50:43.226Z,10.70
2022-12-08T04:51:24.892Z,11.55
2022-12-08T04:52:06.536Z,11.90
2022-12-08T04:52:48.226Z,11.25
2022-12-08T04:53:29.879Z,12.13
2022-12-08T04:54:11.578Z,12.95
2022-12-08T04:54:53.242Z,11.90
2022-12-08T04:55:35.075Z,11.45
2022-12-08T04:56:19.102Z,12.00
2022-12-08T04:57:00.739Z,12.52
2022-12-08T04:57:42.392Z,12.90
2022-12-08T04:58:24.084Z,12.10
2022-12-08T04:59:05.827Z,12.02
2022-12-08T04:59:47.521Z,12.32
2022-12-08T05:00:29.303Z,12.40
2022-12-08T05:01:11.311Z,13.05
2022-12-08T05:01:53.145Z,12.63
2022-12-08T05:02:35.144Z,12.82
2022-12-08T05:03:17.266Z,13.52
2022-12-08T05:03:58.924Z,12.70
2022-12-08T05:04:40.701Z,13.23
2022-12-08T05:05:22.484Z,13.35
2022-12-08T05:06:04.510Z,12.40
2022-12-08T05:06:46.190Z,13.18
2022-12-08T05:07:27.994Z,13.27
2022-12-08T05:08:10.869Z,13.70
2022-12-08T05:08:52.614Z,15.07
2022-12-08T05:09:34.391Z,14.07
2022-12-08T05:10:16.187Z,14.23
2022-12-08T05:11:06.202Z,13.52
2022-12-08T05:11:49.227Z,14.48
2022-12-08T05:12:31.142Z,14.02
2022-12-08T05:13:12.838Z,14.30
2022-12-08T05:13:54.670Z,14.65
2022-12-08T05:14:36.378Z,14.80
2022-12-08T05:15:18.273Z,13.95
2022-12-08T05:16:04.301Z,14.70
2022-12-08T05:16:47.144Z,14.02
2022-12-08T05:17:28.922Z,14.15
2022-12-08T05:18:11.254Z,14.02
2022-12-08T05:18:52.928Z,13.52
2022-12-08T05:19:34.651Z,13.77
2022-12-08T05:20:16.434Z,13.50
2022-12-08T05:20:58.639Z,13.00
2022-12-08T05:21:40.408Z,12.52
2022-12-08T05:22:22.130Z,13.50
2022-12-08T05:23:03.864Z,14.57
2022-12-08T05:23:45.548Z,15.65
2022-12-08T05:24:27.236Z,14.15
2022-12-08T05:25:09.148Z,14.07
2022-12-08T05:25:50.798Z,15.55
2022-12-08T05:26:32.490Z,14.85
2022-12-08T05:27:14.207Z,15.35
2022-12-08T05:28:17.688Z,15.77
2022-12-08T05:28:57.653Z,15.82
2022-12-08T05:29:39.330Z,15.73
2022-12-08T05:30:21.003Z,14.80
2022-12-08T05:31:02.787Z,15.75
2022-12-08T05:31:44.585Z,17.35
2022-12-08T05:32:26.361Z,16.08
2022-12-08T05:33:08.318Z,16.85
2022-12-08T05:33:52.907Z,16.77
2022-12-08T05:34:34.689Z,16.90
2022-12-08T05:35:16.432Z,16.88
2022-12-08T05:35:58.160Z,16.83
2022-12-08T05:36:39.816Z,16.90
2022-12-08T05:37:21.505Z,16.20
2022-12-08T05:38:03.298Z,17.70
2022-12-08T05:38:46.235Z,17.85
2022-12-08T05:39:28.149Z,18.05
2022-12-08T05:40:10.221Z,17.30
2022-12-08T05:40:51.880Z,17.10
2022-12-08T05:41:33.535Z,17.63
2022-12-08T05:42:15.217Z,16.67
2022-12-08T05:42:56.932Z,17.83
2022-12-08T05:43:38.697Z,17.55
2022-12-08T05:44:20.451Z,18.35
2022-12-08T05:45:02.128Z,18.10
2022-12-08T05:45:43.904Z,17.45
2022-12-08T05:46:25.757Z,17.63
2022-12-08T05:47:07.551Z,17.70
2022-12-08T05:47:49.253Z,17.08
2022-12-08T05:48:31.209Z,17.05
2022-12-08T05:49:12.900Z,18.13
2022-12-08T05:49:54.607Z,17.50
2022-12-08T05:50:36.376Z,17.05
2022-12-08T05:51:21.022Z,16.88
2022-12-08T05:52:02.681Z,17.45
2022-12-08T05:52:44.328Z,17.25
2022-12-08T05:53:26.096Z,17.90
2022-12-08T05:54:07.813Z,18.65
2022-12-08T05:54:49.461Z,18.25
2022-12-08T05:55:31.359Z,18.60
2022-12-08T05:56:13.136Z,19.00
2022-12-08T05:56:54.812Z,18.98
2022-12-08T05:57:36.512Z,17.35
2022-12-08T05:58:19.974Z,17.02
2022-12-08T05:59:01.674Z,18.27
2022-12-08T05:59:43.367Z,18.75
2022-12-08T06:00:24.995Z,17.90
2022-12-08T06:01:06.968Z,17.70
2022-12-08T06:01:48.660Z,18.13
2022-12-08T06:02:30.524Z,17.83
2022-12-08T06:03:13.619Z,17.48
2022-12-08T06:03:58.851Z,17.70
2022-12-08T06:04:40.630Z,18.15
2022-12-08T06:05:22.300Z,19.55
2022-12-08T06:06:04.407Z,17.70
2022-12-08T06:06:46.168Z,18.63
2022-12-08T06:07:27.808Z,18.50
2022-12-08T06:08:10.189Z,17.85
2022-12-08T06:08:52.213Z,17.15
2022-12-08T06:09:33.941Z,17.40
2022-12-08T06:10:15.699Z,17.15
2022-12-08T06:10:57.422Z,17.00
2022-12-08T06:11:39.154Z,16.30
2022-12-08T06:12:21.232Z,17.35
2022-12-08T06:13:03.038Z,16.83
2022-12-08T06:13:44.785Z,16.48
2022-12-08T06:14:26.601Z,17.02
2022-12-08T06:15:08.640Z,16.98
2022-12-08T06:15:50.481Z,17.23
2022-12-08T06:16:32.343Z,16.58
2022-12-08T06:17:14.132Z,18.05
2022-12-08T06:17:55.825Z,17.50
2022-12-08T06:18:37.511Z,17.30
2022-12-08T06:19:19.364Z,16.00
2022-12-08T06:20:01.290Z,16.73
2022-12-08T06:20:43.150Z,16.52
2022-12-08T06:21:25.289Z,16.80
2022-12-08T06:22:06.951Z,16.65
2022-12-08T06:22:48.638Z,16.70
2022-12-08T06:23:30.405Z,17.13
2022-12-08T06:24:12.219Z,16.90
2022-12-08T06:24:54.477Z,17.05
2022-12-08T06:25:36.269Z,17.08
2022-12-08T06:26:18.214Z,16.55
2022-12-08T06:26:59.897Z,16.15
2022-12-08T06:27:42.102Z,15.70
2022-12-08T06:28:23.805Z,15.35
2022-12-08T06:29:05.472Z,15.52
2022-12-08T06:29:47.174Z,16.10
2022-12-08T06:30:28.883Z,16.42
2022-12-08T06:31:16.384Z,16.95
2022-12-08T06:31:58.121Z,17.05
2022-12-08T06:32:39.844Z,16.30
2022-12-08T06:33:21.558Z,16.48
2022-12-08T06:34:03.237Z,16.75
2022-12-08T06:34:45.105Z,15.85
2022-12-08T06:35:27.208Z,16.00
2022-12-08T06:36:10.410Z,16.75
2022-12-08T06:36:52.116Z,16.33
2022-12-08T06:37:34.070Z,16.00
2022-12-08T06:38:15.847Z,17.63
2022-12-08T06:38:57.560Z,16.45
2022-12-08T06:39:39.211Z,15.93
2022-12-08T06:40:21.072Z,16.50
2022-12-08T06:41:02.827Z,16.02
2022-12-08T06:42:02.987Z,16.67
2022-12-08T06:42:45.080Z,16.25
2022-12-08T06:43:27.360Z,16.85
2022-12-08T06:44:08.999Z,16.90
2022-12-08T06:44:51.217Z,15.00
2022-12-08T06:45:33.027Z,15.05
2022-12-08T06:46:18.051Z,15.45
2022-12-08T06:46:59.734Z,15.98
2022-12-08T06:47:41.560Z,15.15
2022-12-08T06:48:23.503Z,14.48
2022-12-08T06:49:05.145Z,15.60
2022-12-08T06:49:46.817Z,15.50
2022-12-08T06:50:28.660Z,16.20
2022-12-08T06:51:15.781Z,15.85
2022-12-08T06:51:57.422Z,14.98
2022-12-08T06:52:48.626Z,15.90
2022-12-08T06:53:34.943Z,17.05
2022-12-08T06:54:16.587Z,17.65
2022-12-08T06:54:58.288Z,15.70
2022-12-08T06:56:03.575Z,15.75
2022-12-08T06:56:45.229Z,16.48
2022-12-08T06:57:26.915Z,16.58
2022-12-08T06:58:08.560Z,15.60
2022-12-08T06:58:52.784Z,15.10
2022-12-08T06:59:34.768Z,16.45
2022-12-08T07:00:18.025Z,16.83
2022-12-08T07:01:13.678Z,16.55
2022-12-08T07:01:55.500Z,15.70
2022-12-08T07:02:37.268Z,16.60
2022-12-08T07:03:18.971Z,15.23
2022-12-08T07:04:00.640Z,15.40
2022-12-08T07:04:42.284Z,15.57
2022-12-08T07:05:24.012Z,15.65
2022-12-08T07:06:06.386Z,15.50
2022-12-08T07:06:48.100Z,15.65
2022-12-08T07:07:29.803Z,15.07
2022-12-08T07:08:11.621Z,16.08
2022-12-08T07:08:53.344Z,16.10
2022-12-08T07:09:35.177Z,15.98
2022-12-08T07:10:16.950Z,17.05
2022-12-08T07:10:58.791Z,16.42
2022-12-08T07:11:40.499Z,16.77
2022-12-08T07:12:22.569Z,15.07
2022-12-08T07:13:04.513Z,14.30
2022-12-08T07:13:46.241Z,16.10
2022-12-08T07:14:27.997Z,16.92
2022-12-08T07:15:10.261Z,15.68
2022-12-08T07:15:52.175Z,14.65
2022-12-08T07:16:33.932Z,14.55
2022-12-08T07:17:15.657Z,14.30
2022-12-08T07:18:00.089Z,15.57
2022-12-08T07:18:42.982Z,16.15
2022-12-08T07:19:24.784Z,15.52
2022-12-08T07:20:07.524Z,14.75
2022-12-08T07:20:49.373Z,14.15
2022-12-08T07:21:31.414Z,14.20
2022-12-08T07:22:13.159Z,14.80
2022-12-08T07:22:54.932Z,15.52
2022-12-08T07:23:37.141Z,15.10
2022-12-08T07:24:18.843Z,15.27
2022-12-08T07:25:00.504Z,15.40
2022-12-08T07:25:42.231Z,15.05
2022-12-08T07:26:23.872Z,15.50
2022-12-08T07:27:05.519Z,15.52
2022-12-08T07:27:47.582Z,14.13
2022-12-08T07:28:33.402Z,14.70
2022-12-08T07:29:15.076Z,15.43
2022-12-08T07:29:56.776Z,15.15
2022-12-08T07:30:39.217Z,16.00
2022-12-08T07:31:23.692Z,16.20
2022-12-08T07:32:07.991Z,15.57
2022-12-08T07:32:49.687Z,15.18
2022-12-08T07:33:32.439Z,15.45
2022-12-08T07:34:14.156Z,15.15
2022-12-08T07:34:55.998Z,14.85
2022-12-08T07:35:37.664Z,14.30
2022-12-08T07:36:19.408Z,14.15
2022-12-08T07:37:02.011Z,14.70
2022-12-08T07:37:43.638Z,15.80
2022-12-08T07:38:26.119Z,15.50
2022-12-08T07:39:07.887Z,15.70
2022-12-08T07:39:49.548Z,14.85
2022-12-08T07:40:31.188Z,15.02
2022-12-08T07:41:18.606Z,15.57
2022-12-08T07:42:00.292Z,15.68
2022-12-08T07:42:41.962Z,15.33
2022-12-08T07:43:23.881Z,15.32
2022-12-08T07:44:05.531Z,16.27
2022-12-08T07:44:47.206Z,15.43
2022-12-08T07:45:31.615Z,14.98
2022-12-08T07:46:19.208Z,15.23
2022-12-08T07:47:00.970Z,14.63
2022-12-08T07:47:42.621Z,14.98
2022-12-08T07:48:24.278Z,15.73
2022-12-08T07:49:05.938Z,14.70
2022-12-08T07:49:47.604Z,14.48
2022-12-08T07:50:29.266Z,15.63
2022-12-08T07:51:13.679Z,15.82
2022-12-08T07:51:55.311Z,17.05
2022-12-08T07:52:37.011Z,15.85
2022-12-08T07:53:18.732Z,17.00
2022-12-08T07:54:00.458Z,16.13
2022-12-08T07:54:42.119Z,15.40
2022-12-08T07:55:23.877Z,16.92
2022-12-08T07:56:10.478Z,16.15
2022-12-08T07:56:52.112Z,16.05
2022-12-08T07:57:33.844Z,15.95
2022-12-08T07:58:15.512Z,16.92
2022-12-08T07:58:57.186Z,16.17
2022-12-08T07:59:38.844Z,15.07
2022-12-08T08:00:21.013Z,15.18
2022-12-08T08:01:02.845Z,14.52
2022-12-08T08:01:45.598Z,15.18
2022-12-08T08:02:27.575Z,15.68
2022-12-08T08:03:11.609Z,16.38
2022-12-08T08:03:54.983Z,14.88
2022-12-08T08:04:36.701Z,13.43
2022-12-08T08:05:18.443Z,13.68
2022-12-08T08:06:04.572Z,13.50
2022-12-08T08:06:46.233Z,13.52
2022-12-08T08:07:28.007Z,13.75
2022-12-08T08:08:10.480Z,13.27
2022-12-08T08:08:52.197Z,14.32
2022-12-08T08:09:34.431Z,14.77
2022-12-08T08:10:16.116Z,13.82
2022-12-08T08:10:58.553Z,14.32
2022-12-08T08:11:40.559Z,14.23
2022-12-08T08:12:31.413Z,15.27
2022-12-08T08:13:13.925Z,14.82
2022-12-08T08:13:57.057Z,13.85
2022-12-08T08:14:38.750Z,14.68
2022-12-08T08:15:21.257Z,15.23
2022-12-08T08:16:08.028Z,14.27
2022-12-08T08:16:49.951Z,14.05
2022-12-08T08:17:31.819Z,14.13
2022-12-08T08:18:13.696Z,15.48
2022-12-08T08:18:55.337Z,14.68
2022-12-08T08:19:37.027Z,14.05
2022-12-08T08:20:19.688Z,13.68
2022-12-08T08:21:15.794Z,13.38
2022-12-08T08:22:03.446Z,14.25
2022-12-08T08:22:49.382Z,13.80
2022-12-08T08:23:31.123Z,13.52
2022-12-08T08:24:12.826Z,13.52
2022-12-08T08:24:54.833Z,13.88
2022-12-08T08:25:36.519Z,14.38
2022-12-08T08:26:18.319Z,13.55
2022-12-08T08:26:59.959Z,13.40
2022-12-08T08:27:42.274Z,13.48
2022-12-08T08:28:23.942Z,13.68
2022-12-08T08:29:05.640Z,13.77
2022-12-08T08:29:47.459Z,14.13
2022-12-08T08:30:29.192Z,14.25
2022-12-08T08:31:11.040Z,14.05
2022-12-08T08:31:52.765Z,14.13
2022-12-08T08:32:35.508Z,14.68
2022-12-08T08:33:17.161Z,14.02
2022-12-08T08:34:00.565Z,13.48
2022-12-08T08:34:42.320Z,12.02
2022-12-08T08:35:23.991Z,13.77
2022-12-08T08:36:09.672Z,12.68
2022-12-08T08:36:51.433Z,13.20
2022-12-08T08:37:33.193Z,14.20
2022-12-08T08:38:15.055Z,13.93
2022-12-08T08:38:56.718Z,13.65
2022-12-08T08:39:38.416Z,13.68
2022-12-08T08:40:20.092Z,13.88
2022-12-08T08:41:08.076Z,13.80
2022-12-08T08:41:49.774Z,12.85
2022-12-08T08:42:31.555Z,13.63
2022-12-08T08:43:32.939Z,13.43
2022-12-08T08:44:19.360Z,14.27
2022-12-08T08:45:01.063Z,13.60
2022-12-08T08:45:42.745Z,13.57
2022-12-08T08:46:24.486Z,13.63
2022-12-08T08:47:06.575Z,13.40
2022-12-08T08:47:48.310Z,13.18
2022-12-08T08:48:31.014Z,14.02
2022-12-08T08:49:12.772Z,13.02
2022-12-08T08:49:54.433Z,13.35
2022-12-08T08:50:37.871Z,12.40
2022-12-08T08:51:19.693Z,12.07
2022-12-08T08:52:01.508Z,12.77
2022-12-08T08:52:43.180Z,12.40
2022-12-08T08:53:24.947Z,12.70
2022-12-08T08:54:06.816Z,11.93
2022-12-08T08:54:48.656Z,13.13
2022-12-08T08:55:30.356Z,13.15
2022-12-08T08:56:13.907Z,13.70
2022-12-08T08:56:57.714Z,12.57
2022-12-08T08:57:39.419Z,13.23
2022-12-08T08:58:21.091Z,12.50
2022-12-08T08:59:03.749Z,11.68
2022-12-08T08:59:45.396Z,11.70
2022-12-08T09:00:27.073Z,12.10
2022-12-08T09:01:08.795Z,12.35
2022-12-08T09:01:50.555Z,11.52
2022-12-08T09:02:32.270Z,12.30
2022-12-08T09:03:13.992Z,12.77
2022-12-08T09:03:56.146Z,12.75
2022-12-08T09:04:37.928Z,11.52
2022-12-08T09:05:19.914Z,11.25
2022-12-08T09:06:01.701Z,11.90
2022-12-08T09:06:45.122Z,11.55
2022-12-08T09:07:26.866Z,11.27
2022-12-08T09:08:09.005Z,11.18
2022-12-08T09:08:51.379Z,11.25
2022-12-08T09:09:33.053Z,11.50
2022-12-08T09:10:14.896Z,11.68
2022-12-08T09:10:57.089Z,11.88
2022-12-08T09:11:38.735Z,11.80
2022-12-08T09:12:20.904Z,11.63
2022-12-08T09:13:02.635Z,10.63
2022-12-08T09:13:44.770Z,10.00
2022-12-08T09:14:27.793Z,10.60
2022-12-08T09:15:09.919Z,10.35
2022-12-08T09:15:51.728Z,9.80
2022-12-08T09:16:38.879Z,9.63
2022-12-08T09:17:23.529Z,9.48
2022-12-08T09:18:09.472Z,9.30
2022-12-08T09:18:51.381Z,8.90
2022-12-08T09:19:33.172Z,9.80
2022-12-08T09:20:14.903Z,10.05
2022-12-08T09:20:56.764Z,9.52
2022-12-08T09:21:39.700Z,9.90
2022-12-08T09:22:21.935Z,9.15
2022-12-08T09:23:03.663Z,9.20
2022-12-08T09:23:45.363Z,8.93
2022-12-08T09:24:27.180Z,9.20
2022-12-08T09:25:09.396Z,9.20
2022-12-08T09:25:51.103Z,8.43
2022-12-08T09:26:32.798Z,8.70
2022-12-08T09:27:14.451Z,8.20
2022-12-08T09:27:56.298Z,8.27
2022-12-08T09:28:38.431Z,8.80
2022-12-08T09:29:20.211Z,9.10
2022-12-08T09:30:02.224Z,8.07
2022-12-08T09:30:44.133Z,8.82
2022-12-08T09:31:25.972Z,8.60
2022-12-08T09:32:07.799Z,8.60
2022-12-08T09:32:49.496Z,8.60
2022-12-08T09:33:31.245Z,9.30